Time;durP1;ratioP1;P1;durP2;ratioP2;P2;SDS_P1;SDS_P2;PMS_P1;PMS_P2;Temp;Humidity;BMP_temperature;BMP_pressure;BME280_temperature;BME280_humidity;BME280_pressure;Samples;Min_cycle;Max_cycle;Signal;HPM_P1;HPM_P2
2022/01/09 00:01:06;;;;;;;1.33;0.80;;;;;;;;;;5032252;28;20056;-65
2022/01/09 00:03:31;;;;;;;3.40;0.60;;;;;;;;;;5038228;28;20052;-65
2022/01/09 00:05:57;;;;;;;4.17;1.23;;;;;;;;;;5033417;28;20466;-65
2022/01/09 00:08:22;;;;;;;2.50;0.60;;;;;;;;;;5029390;28;20478;-65
2022/01/09 00:10:47;;;;;;;1.73;0.50;;;;;;;;;;5030730;28;20042;-65
2022/01/09 00:13:13;;;;;;;3.50;0.67;;;;;;;;;;5032977;28;20029;-65
2022/01/09 00:15:39;;;;;;;0.90;0.60;;;;;;;;;;5032402;28;20108;-65
2022/01/09 00:18:04;;;;;;;2.10;1.20;;;;;;;;;;5015890;28;20022;-65
2022/01/09 00:20:29;;;;;;;3.00;0.70;;;;;;;;;;5033516;28;20029;-65
2022/01/09 00:22:54;;;;;;;1.67;1.07;;;;;;;;;;5031561;28;20036;-65
2022/01/09 00:25:21;;;;;;;2.27;0.70;;;;;;;;;;5033173;28;20029;-65
2022/01/09 00:27:46;;;;;;;1.87;0.80;;;;;;;;;;5030337;28;20624;-64
2022/01/09 00:30:12;;;;;;;2.80;0.70;;;;;;;;;;5033360;28;20108;-65
2022/01/09 00:32:38;;;;;;;1.43;0.60;;;;;;;;;;5033085;28;20486;-65
2022/01/09 00:35:04;;;;;;;2.23;0.90;;;;;;;;;;5032918;28;20032;-65
2022/01/09 00:37:29;;;;;;;1.63;0.40;;;;;;;;;;5033128;28;20037;-65
2022/01/09 00:39:55;;;;;;;0.57;0.20;;;;;;;;;;5031670;28;20022;-65
2022/01/09 00:42:20;;;;;;;1.87;0.60;;;;;;;;;;5026673;28;20033;-65
2022/01/09 00:44:45;;;;;;;1.53;0.30;;;;;;;;;;5031936;28;20061;-65
2022/01/09 00:47:10;;;;;;;1.20;0.30;;;;;;;;;;5032293;28;20030;-65
2022/01/09 00:49:36;;;;;;;0.70;0.40;;;;;;;;;;5014576;28;20068;-65
2022/01/09 00:52:01;;;;;;;1.00;0.40;;;;;;;;;;5032692;28;20065;-65
2022/01/09 00:54:27;;;;;;;1.00;0.30;;;;;;;;;;5032892;28;20535;-65
2022/01/09 00:56:52;;;;;;;0.97;0.30;;;;;;;;;;5032718;28;20030;-65
2022/01/09 00:59:17;;;;;;;0.90;0.20;;;;;;;;;;5029785;28;20401;-65
2022/01/09 01:01:42;;;;;;;0.73;0.20;;;;;;;;;;5030806;28;20026;-65
2022/01/09 01:04:08;;;;;;;0.50;0.30;;;;;;;;;;5032875;28;20029;-65
2022/01/09 01:06:33;;;;;;;1.57;0.30;;;;;;;;;;5031388;28;20025;-65
2022/01/09 01:08:58;;;;;;;1.13;0.30;;;;;;;;;;5030342;28;20091;-65
2022/01/09 01:11:23;;;;;;;0.87;0.30;;;;;;;;;;5029368;28;20025;-65
2022/01/09 01:13:48;;;;;;;0.83;0.30;;;;;;;;;;5031836;28;20048;-65
2022/01/09 01:16:14;;;;;;;1.60;0.40;;;;;;;;;;5031418;28;20013;-65
2022/01/09 01:18:43;;;;;;;1.80;0.40;;;;;;;;;;5031809;28;20482;-65
2022/01/09 01:21:08;;;;;;;1.40;0.50;;;;;;;;;;5032189;28;20466;-65
2022/01/09 01:23:33;;;;;;;1.07;0.23;;;;;;;;;;5032246;28;20074;-65
2022/01/09 01:26:01;;;;;;;1.00;0.30;;;;;;;;;;5032663;28;20040;-65
2022/01/09 01:28:26;;;;;;;1.20;0.23;;;;;;;;;;5030445;28;20021;-65
2022/01/09 01:30:52;;;;;;;1.10;0.40;;;;;;;;;;5030452;28;20545;-65
2022/01/09 01:33:17;;;;;;;0.97;0.40;;;;;;;;;;5030648;28;20029;-65
2022/01/09 01:35:42;;;;;;;1.10;0.30;;;;;;;;;;5031081;28;20049;-65
2022/01/09 01:38:07;;;;;;;1.23;0.30;;;;;;;;;;5029951;28;20043;-65
2022/01/09 01:40:33;;;;;;;0.63;0.23;;;;;;;;;;5027729;28;20060;-65
2022/01/09 01:42:58;;;;;;;0.90;0.30;;;;;;;;;;5029360;28;20009;-65
2022/01/09 01:45:23;;;;;;;0.77;0.40;;;;;;;;;;5031558;28;20013;-65
2022/01/09 01:47:48;;;;;;;0.80;0.40;;;;;;;;;;5013989;28;20553;-65
2022/01/09 01:50:14;;;;;;;1.20;0.50;;;;;;;;;;5029969;28;20375;-64
2022/01/09 01:52:44;;;;;;;0.50;0.30;;;;;;;;;;5030370;28;20053;-66
2022/01/09 01:55:10;;;;;;;0.50;0.20;;;;;;;;;;5014871;28;20553;-66
2022/01/09 01:57:37;;;;;;;0.43;0.40;;;;;;;;;;5030264;28;20378;-66
2022/01/09 02:00:07;;;;;;;0.60;0.50;;;;;;;;;;5029656;28;20017;-66
2022/01/09 02:02:32;;;;;;;0.90;0.30;;;;;;;;;;5031388;28;20021;-65
2022/01/09 02:04:57;;;;;;;0.77;0.40;;;;;;;;;;5030712;28;20029;-66
2022/01/09 02:07:24;;;;;;;1.37;0.50;;;;;;;;;;5034427;28;20443;-66
2022/01/09 02:09:49;;;;;;;1.17;0.60;;;;;;;;;;5033238;28;20025;-65
2022/01/09 02:12:15;;;;;;;1.17;0.60;;;;;;;;;;5028688;28;20473;-64
2022/01/09 02:14:45;;;;;;;1.57;0.60;;;;;;;;;;5031480;28;20021;-64
2022/01/09 02:17:10;;;;;;;0.63;0.40;;;;;;;;;;5030539;28;20506;-64
2022/01/09 02:19:35;;;;;;;1.93;0.60;;;;;;;;;;5031153;28;20048;-64
2022/01/09 02:22:00;;;;;;;2.60;0.50;;;;;;;;;;5029870;28;20032;-64
2022/01/09 02:24:26;;;;;;;2.37;0.50;;;;;;;;;;5030541;28;20441;-64
2022/01/09 02:26:51;;;;;;;1.40;0.50;;;;;;;;;;5034082;28;20033;-64
2022/01/09 02:29:17;;;;;;;1.40;0.60;;;;;;;;;;5033705;28;20469;-64
2022/01/09 02:31:43;;;;;;;1.27;0.40;;;;;;;;;;5034501;28;20033;-64
2022/01/09 02:34:08;;;;;;;2.30;0.77;;;;;;;;;;5035804;28;20036;-64
2022/01/09 02:36:33;;;;;;;2.53;0.80;;;;;;;;;;5035084;28;20382;-64
2022/01/09 02:38:59;;;;;;;2.90;0.87;;;;;;;;;;5033807;28;20079;-65
2022/01/09 02:41:24;;;;;;;2.13;0.90;;;;;;;;;;5031598;28;20071;-65
2022/01/09 02:43:49;;;;;;;1.87;0.90;;;;;;;;;;5034311;28;20025;-65
2022/01/09 02:46:25;;;;;;;1.97;1.00;;;;;;;;;;5034413;28;20087;-65
2022/01/09 02:48:51;;;;;;;1.47;0.87;;;;;;;;;;5034185;28;20034;-65
2022/01/09 02:51:18;;;;;;;2.03;1.10;;;;;;;;;;5034255;28;20021;-65
2022/01/09 02:53:47;;;;;;;2.20;0.90;;;;;;;;;;5034770;28;20053;-65
2022/01/09 02:56:12;;;;;;;1.10;0.63;;;;;;;;;;5017698;28;20044;-65
2022/01/09 02:58:37;;;;;;;1.07;0.80;;;;;;;;;;5034310;28;20406;-65
2022/01/09 03:01:04;;;;;;;1.73;0.90;;;;;;;;;;5033255;28;20021;-65
2022/01/09 03:03:29;;;;;;;1.80;1.10;;;;;;;;;;5033095;28;20426;-65
2022/01/09 03:05:54;;;;;;;2.60;1.03;;;;;;;;;;5035345;28;20017;-65
2022/01/09 03:08:19;;;;;;;2.23;1.10;;;;;;;;;;5033457;28;20121;-65
2022/01/09 03:10:45;;;;;;;1.63;0.90;;;;;;;;;;5029908;28;20029;-65
2022/01/09 03:13:10;;;;;;;2.33;1.00;;;;;;;;;;5032961;28;20021;-65
2022/01/09 03:15:36;;;;;;;1.63;0.90;;;;;;;;;;5034136;28;20092;-65
2022/01/09 03:18:01;;;;;;;1.77;0.80;;;;;;;;;;5034539;28;20024;-65
2022/01/09 03:20:27;;;;;;;1.73;0.73;;;;;;;;;;5028786;28;20570;-65
2022/01/09 03:22:54;;;;;;;2.60;1.20;;;;;;;;;;5033939;28;20532;-65
2022/01/09 03:25:20;;;;;;;2.07;1.40;;;;;;;;;;5049425;28;20056;-65
2022/01/09 03:27:48;;;;;;;2.97;0.90;;;;;;;;;;5037786;28;20056;-65
2022/01/09 03:30:13;;;;;;;1.80;1.37;;;;;;;;;;5034129;28;20017;-65
2022/01/09 03:32:39;;;;;;;2.93;1.30;;;;;;;;;;5034206;28;20129;-65
2022/01/09 03:35:05;;;;;;;1.50;1.00;;;;;;;;;;5034249;28;20025;-65
2022/01/09 03:37:30;;;;;;;2.57;0.87;;;;;;;;;;5033837;28;20466;-65
2022/01/09 03:39:55;;;;;;;3.00;1.60;;;;;;;;;;5033798;28;20044;-65
2022/01/09 03:42:20;;;;;;;3.50;1.20;;;;;;;;;;5030691;28;20032;-65
2022/01/09 03:44:45;;;;;;;2.70;1.40;;;;;;;;;;5033491;28;20033;-66
2022/01/09 03:47:11;;;;;;;2.07;1.43;;;;;;;;;;5015979;28;20501;-65
2022/01/09 03:49:36;;;;;;;2.03;1.30;;;;;;;;;;5016381;28;20485;-65
2022/01/09 03:52:01;;;;;;;2.37;1.10;;;;;;;;;;5033711;28;20049;-65
2022/01/09 03:54:26;;;;;;;2.37;1.40;;;;;;;;;;5033780;28;20025;-65
2022/01/09 03:56:52;;;;;;;2.60;1.70;;;;;;;;;;5034062;28;20529;-65
2022/01/09 03:59:17;;;;;;;2.40;1.43;;;;;;;;;;5033741;28;20028;-65
2022/01/09 04:01:43;;;;;;;1.37;1.10;;;;;;;;;;5030920;28;20107;-65
2022/01/09 04:04:08;;;;;;;1.93;1.33;;;;;;;;;;5033897;28;20018;-65
2022/01/09 04:06:33;;;;;;;2.67;1.53;;;;;;;;;;5031756;28;20119;-65
2022/01/09 04:09:06;;;;;;;2.70;1.23;;;;;;;;;;5033370;28;20484;-65
2022/01/09 04:11:36;;;;;;;2.00;1.40;;;;;;;;;;5030044;28;20025;-65
2022/01/09 04:14:01;;;;;;;4.13;2.00;;;;;;;;;;5027506;28;20068;-65
2022/01/09 04:16:26;;;;;;;3.73;1.53;;;;;;;;;;5032862;28;20049;-65
2022/01/09 04:18:52;;;;;;;2.90;1.30;;;;;;;;;;5032013;28;20487;-65
2022/01/09 04:21:17;;;;;;;1.67;1.30;;;;;;;;;;5031756;28;20541;-65
2022/01/09 04:23:42;;;;;;;1.80;1.27;;;;;;;;;;5033535;28;20067;-65
2022/01/09 04:26:07;;;;;;;3.20;1.40;;;;;;;;;;5031680;28;20055;-65
2022/01/09 04:28:32;;;;;;;3.20;1.77;;;;;;;;;;5032673;28;20035;-65
2022/01/09 04:30:58;;;;;;;2.20;1.40;;;;;;;;;;5032774;28;20021;-65
2022/01/09 04:33:23;;;;;;;2.27;1.13;;;;;;;;;;5032945;28;20083;-65
2022/01/09 04:35:49;;;;;;;2.50;1.27;;;;;;;;;;5031932;28;20025;-65
2022/01/09 04:38:14;;;;;;;3.20;1.37;;;;;;;;;;5031808;28;20138;-65
2022/01/09 04:40:39;;;;;;;2.53;1.33;;;;;;;;;;5028226;28;20026;-65
2022/01/09 04:43:07;;;;;;;2.50;1.37;;;;;;;;;;5032131;28;20085;-65
2022/01/09 04:45:33;;;;;;;2.57;1.40;;;;;;;;;;5032694;28;20532;-65
2022/01/09 04:48:02;;;;;;;3.07;1.90;;;;;;;;;;5030933;28;20169;-65
2022/01/09 04:50:30;;;;;;;1.50;1.10;;;;;;;;;;5033041;28;20029;-65
2022/01/09 04:53:04;;;;;;;2.27;1.40;;;;;;;;;;5032177;28;20049;-65
2022/01/09 04:55:30;;;;;;;2.43;1.20;;;;;;;;;;5033065;28;20219;-65
2022/01/09 04:57:55;;;;;;;1.90;1.13;;;;;;;;;;5030862;28;20522;-65
2022/01/09 05:00:21;;;;;;;1.97;1.00;;;;;;;;;;5032905;28;20160;-65
2022/01/09 05:02:46;;;;;;;2.77;1.50;;;;;;;;;;5032244;28;20014;-65
2022/01/09 05:05:11;;;;;;;1.73;0.83;;;;;;;;;;5032879;28;20029;-65
2022/01/09 05:07:37;;;;;;;1.93;1.10;;;;;;;;;;5031131;28;20033;-65
2022/01/09 05:10:03;;;;;;;2.20;1.10;;;;;;;;;;5032022;28;20024;-65
2022/01/09 05:12:28;;;;;;;1.60;1.00;;;;;;;;;;5023239;28;20045;-65
2022/01/09 05:14:54;;;;;;;1.53;0.80;;;;;;;;;;5032379;28;20434;-65
2022/01/09 05:17:19;;;;;;;2.37;1.00;;;;;;;;;;5038289;28;20493;-65
2022/01/09 05:19:46;;;;;;;1.23;0.97;;;;;;;;;;5026890;28;20614;-65
2022/01/09 05:22:11;;;;;;;1.30;0.90;;;;;;;;;;5028701;28;20029;-65
2022/01/09 05:24:37;;;;;;;1.20;0.80;;;;;;;;;;5030726;28;20075;-65
2022/01/09 05:27:02;;;;;;;2.40;0.93;;;;;;;;;;5032422;28;20398;-65
2022/01/09 05:29:27;;;;;;;1.63;0.73;;;;;;;;;;5030805;28;20541;-65
2022/01/09 05:31:52;;;;;;;1.97;0.90;;;;;;;;;;5031593;28;20090;-65
2022/01/09 05:34:18;;;;;;;2.60;0.80;;;;;;;;;;5031077;28;20440;-65
2022/01/09 05:36:43;;;;;;;1.00;0.80;;;;;;;;;;5032232;28;20531;-65
2022/01/09 05:39:09;;;;;;;0.90;0.80;;;;;;;;;;5030681;28;20028;-65
2022/01/09 05:41:34;;;;;;;2.87;0.93;;;;;;;;;;5027879;28;20104;-65
2022/01/09 05:43:59;;;;;;;1.93;0.70;;;;;;;;;;5030598;28;20022;-65
2022/01/09 05:46:24;;;;;;;1.30;1.00;;;;;;;;;;5030282;28;20030;-65
2022/01/09 05:48:50;;;;;;;0.80;0.60;;;;;;;;;;5031862;28;20394;-65
2022/01/09 05:51:15;;;;;;;1.13;0.67;;;;;;;;;;5030116;28;20025;-65
2022/01/09 05:53:40;;;;;;;0.80;0.63;;;;;;;;;;5031296;28;20137;-65
2022/01/09 05:56:05;;;;;;;1.80;0.60;;;;;;;;;;5050026;28;20022;-65
2022/01/09 05:58:33;;;;;;;2.00;0.90;;;;;;;;;;5038849;28;20022;-65
2022/01/09 06:00:58;;;;;;;1.00;0.60;;;;;;;;;;5009584;28;20029;-65
2022/01/09 06:03:23;;;;;;;0.97;0.63;;;;;;;;;;5030235;28;20009;-65
2022/01/09 06:05:49;;;;;;;1.20;0.50;;;;;;;;;;5031718;28;20494;-65
2022/01/09 06:08:14;;;;;;;2.27;0.60;;;;;;;;;;5031345;28;20036;-65
2022/01/09 06:10:39;;;;;;;1.67;0.70;;;;;;;;;;5027425;28;20025;-65
2022/01/09 06:13:04;;;;;;;1.70;0.50;;;;;;;;;;5028945;28;20024;-65
2022/01/09 06:15:29;;;;;;;0.80;0.50;;;;;;;;;;5031889;28;20045;-65
2022/01/09 06:17:55;;;;;;;0.70;0.30;;;;;;;;;;5029932;28;20167;-65
2022/01/09 06:20:20;;;;;;;1.77;0.80;;;;;;;;;;5030494;28;20151;-65
2022/01/09 06:22:45;;;;;;;1.60;0.40;;;;;;;;;;5029245;28;20021;-65
2022/01/09 06:25:11;;;;;;;1.67;0.70;;;;;;;;;;5031599;28;20026;-65
2022/01/09 06:27:36;;;;;;;1.07;0.63;;;;;;;;;;5031361;28;20018;-65
2022/01/09 06:30:03;;;;;;;1.80;0.60;;;;;;;;;;5031059;28;20033;-65
2022/01/09 06:32:28;;;;;;;1.37;0.70;;;;;;;;;;5031184;28;20029;-65
2022/01/09 06:34:53;;;;;;;1.23;0.60;;;;;;;;;;5030015;28;20029;-65
2022/01/09 06:37:18;;;;;;;0.60;0.47;;;;;;;;;;5031652;28;20518;-65
2022/01/09 06:39:44;;;;;;;2.00;0.43;;;;;;;;;;5029778;28;20026;-65
2022/01/09 06:42:10;;;;;;;1.43;0.70;;;;;;;;;;5026610;28;20025;-65
2022/01/09 06:44:35;;;;;;;0.87;0.47;;;;;;;;;;5030184;28;20028;-65
2022/01/09 06:47:00;;;;;;;0.80;0.40;;;;;;;;;;5030880;28;20561;-65
2022/01/09 06:49:26;;;;;;;0.93;0.50;;;;;;;;;;5043288;28;20025;-65
2022/01/09 06:51:51;;;;;;;0.50;0.30;;;;;;;;;;5029293;28;20053;-65
2022/01/09 06:54:16;;;;;;;1.80;0.40;;;;;;;;;;5020541;28;20022;-66
2022/01/09 06:56:42;;;;;;;0.70;0.30;;;;;;;;;;5011679;28;20120;-65
2022/01/09 06:59:07;;;;;;;0.40;0.30;;;;;;;;;;5024994;28;20028;-65
2022/01/09 07:01:32;;;;;;;0.60;0.23;;;;;;;;;;5030538;28;20029;-65
2022/01/09 07:03:57;;;;;;;0.93;0.40;;;;;;;;;;5013165;28;20095;-65
2022/01/09 07:06:23;;;;;;;0.60;0.20;;;;;;;;;;5029755;28;20095;-65
2022/01/09 07:08:48;;;;;;;0.40;0.23;;;;;;;;;;5030593;28;20056;-65
2022/01/09 07:11:13;;;;;;;0.40;0.27;;;;;;;;;;5022888;28;20025;-65
2022/01/09 07:13:39;;;;;;;0.40;0.20;;;;;;;;;;5032486;28;20051;-65
2022/01/09 07:16:04;;;;;;;0.83;0.20;;;;;;;;;;5032401;28;20022;-65
2022/01/09 07:18:30;;;;;;;0.40;0.13;;;;;;;;;;5033491;28;20536;-65
2022/01/09 07:20:55;;;;;;;0.37;0.20;;;;;;;;;;5033390;28;20036;-65
2022/01/09 07:23:20;;;;;;;0.50;0.20;;;;;;;;;;5035617;28;20518;-65
2022/01/09 07:25:45;;;;;;;1.07;0.30;;;;;;;;;;5033638;28;20056;-65
2022/01/09 07:28:11;;;;;;;0.57;0.20;;;;;;;;;;5034056;28;20017;-65
2022/01/09 07:30:36;;;;;;;0.70;0.30;;;;;;;;;;5032206;28;20021;-65
2022/01/09 07:33:03;;;;;;;2.20;0.20;;;;;;;;;;5031899;28;20033;-65
2022/01/09 07:35:28;;;;;;;0.43;0.20;;;;;;;;;;5032532;28;20025;-66
2022/01/09 07:37:53;;;;;;;0.80;0.20;;;;;;;;;;5034072;28;20025;-66
2022/01/09 07:40:20;;;;;;;0.57;0.30;;;;;;;;;;5032151;28;20020;-66
2022/01/09 07:42:48;;;;;;;0.93;0.23;;;;;;;;;;5045902;28;20041;-66
2022/01/09 07:45:14;;;;;;;0.43;0.22;;;;;;;;;;5032494;28;20034;-66
2022/01/09 07:47:39;;;;;;;0.43;0.40;;;;;;;;;;5031741;28;20379;-66
2022/01/09 07:50:05;;;;;;;0.45;0.30;;;;;;;;;;5015217;28;20091;-66
2022/01/09 07:52:34;;;;;;;0.60;0.30;;;;;;;;;;5032229;28;20054;-64
2022/01/09 07:54:59;;;;;;;0.33;0.20;;;;;;;;;;5032508;28;20145;-64
2022/01/09 07:57:24;;;;;;;1.02;0.20;;;;;;;;;;5033304;28;20025;-65
2022/01/09 07:59:50;;;;;;;0.93;0.28;;;;;;;;;;5034048;28;20031;-65
2022/01/09 08:02:15;;;;;;;0.60;0.30;;;;;;;;;;5031012;28;20079;-65
2022/01/09 08:04:40;;;;;;;0.95;0.35;;;;;;;;;;5033743;28;20042;-65
2022/01/09 08:07:05;;;;;;;1.25;0.40;;;;;;;;;;5031783;28;20172;-71
2022/01/09 08:09:30;;;;;;;0.68;0.30;;;;;;;;;;5048489;28;20457;-63
2022/01/09 08:11:56;;;;;;;0.85;0.40;;;;;;;;;;5028498;28;20022;-63
2022/01/09 08:14:21;;;;;;;1.23;0.55;;;;;;;;;;5033929;28;20025;-63
2022/01/09 08:16:46;;;;;;;0.70;0.43;;;;;;;;;;5032380;28;20128;-63
2022/01/09 08:19:11;;;;;;;1.10;0.55;;;;;;;;;;5031695;28;20047;-63
2022/01/09 08:21:37;;;;;;;2.25;0.70;;;;;;;;;;5032990;28;20025;-64
2022/01/09 08:24:02;;;;;;;1.48;0.50;;;;;;;;;;5032995;28;20453;-64
2022/01/09 08:26:27;;;;;;;0.95;0.52;;;;;;;;;;5031827;28;20034;-64
2022/01/09 08:28:54;;;;;;;1.33;0.52;;;;;;;;;;5032848;28;20030;-64
2022/01/09 08:31:19;;;;;;;0.93;0.60;;;;;;;;;;5034631;28;20429;-64
2022/01/09 08:33:45;;;;;;;1.08;0.50;;;;;;;;;;5032796;28;20466;-64
2022/01/09 08:36:10;;;;;;;1.52;0.75;;;;;;;;;;5030544;28;20021;-64
2022/01/09 08:38:35;;;;;;;1.10;0.50;;;;;;;;;;5036591;28;20056;-63
2022/01/09 08:41:01;;;;;;;1.33;0.30;;;;;;;;;;5025848;28;20013;-64
2022/01/09 08:43:26;;;;;;;0.50;0.30;;;;;;;;;;5043131;28;20072;-64
2022/01/09 08:45:51;;;;;;;0.30;0.20;;;;;;;;;;5030095;28;20481;-64
2022/01/09 08:48:16;;;;;;;0.70;0.20;;;;;;;;;;5030863;28;20014;-64
2022/01/09 08:50:42;;;;;;;0.30;0.10;;;;;;;;;;5032271;28;20394;-64
2022/01/09 08:53:07;;;;;;;0.32;0.10;;;;;;;;;;5031016;28;20057;-64
2022/01/09 08:55:32;;;;;;;0.45;0.30;;;;;;;;;;5033246;28;20029;-64
2022/01/09 08:57:58;;;;;;;1.15;0.47;;;;;;;;;;5031678;28;20017;-64
2022/01/09 09:00:24;;;;;;;0.88;0.15;;;;;;;;;;5030833;28;20524;-64
2022/01/09 09:02:49;;;;;;;0.47;0.10;;;;;;;;;;5030798;28;20033;-64
2022/01/09 09:05:14;;;;;;;0.57;0.17;;;;;;;;;;5031715;28;20036;-64
2022/01/09 09:07:39;;;;;;;0.20;0.10;;;;;;;;;;5032239;28;20021;-64
2022/01/09 09:10:05;;;;;;;0.40;0.10;;;;;;;;;;5025507;28;20549;-64
2022/01/09 09:12:31;;;;;;;0.40;0.10;;;;;;;;;;5027169;28;20474;-64
2022/01/09 09:14:56;;;;;;;0.15;0.08;;;;;;;;;;5011535;28;20022;-64
2022/01/09 09:17:23;;;;;;;0.47;0.20;;;;;;;;;;5024949;28;20022;-64
2022/01/09 09:19:48;;;;;;;0.17;0.00;;;;;;;;;;5033813;28;20032;-64
2022/01/09 09:22:13;;;;;;;0.10;0.05;;;;;;;;;;5036099;28;20195;-63
2022/01/09 09:24:38;;;;;;;0.10;0.10;;;;;;;;;;5019968;28;20433;-64
2022/01/09 09:27:04;;;;;;;0.60;0.20;;;;;;;;;;5028014;28;20487;-64
2022/01/09 09:29:29;;;;;;;0.30;0.22;;;;;;;;;;5045813;28;20371;-64
2022/01/09 09:31:56;;;;;;;0.30;0.10;;;;;;;;;;5029820;28;20047;-62
2022/01/09 09:34:21;;;;;;;0.20;0.10;;;;;;;;;;5030936;28;20075;-65
2022/01/09 09:36:47;;;;;;;0.28;0.10;;;;;;;;;;5031397;28;20105;-63
2022/01/09 09:39:12;;;;;;;0.20;0.10;;;;;;;;;;5029803;28;20017;-63
2022/01/09 09:41:39;;;;;;;0.20;0.10;;;;;;;;;;5026287;28;20032;-63
2022/01/09 09:44:07;;;;;;;0.30;0.20;;;;;;;;;;5020542;28;20178;-64
2022/01/09 09:46:33;;;;;;;0.28;0.10;;;;;;;;;;5026212;28;20029;-64
2022/01/09 09:48:58;;;;;;;0.50;0.10;;;;;;;;;;5032129;28;20382;-64
2022/01/09 09:51:28;;;;;;;0.10;0.10;;;;;;;;;;5032240;28;20025;-64
2022/01/09 09:53:54;;;;;;;0.17;0.03;;;;;;;;;;5029300;28;20391;-70
2022/01/09 09:56:20;;;;;;;0.35;0.10;;;;;;;;;;5028921;28;20124;-64
2022/01/09 09:58:49;;;;;;;0.13;0.00;;;;;;;;;;5005241;28;20160;-64
2022/01/09 10:01:24;;;;;;;0.10;0.10;;;;;;;;;;5030095;28;20037;-64
2022/01/09 10:03:57;;;;;;;0.10;0.10;;;;;;;;;;5028386;28;20057;-64
2022/01/09 10:06:35;;;;;;;0.20;0.20;;;;;;;;;;5030742;28;20060;-64
2022/01/09 10:09:04;;;;;;;1.05;0.10;;;;;;;;;;5030862;28;20068;-64
2022/01/09 10:11:39;;;;;;;0.20;0.10;;;;;;;;;;5026047;28;20102;-64
2022/01/09 10:14:15;;;;;;;0.13;0.10;;;;;;;;;;5026680;28;20029;-64
2022/01/09 10:16:41;;;;;;;0.20;0.10;;;;;;;;;;5027724;28;20030;-64
2022/01/09 10:19:06;;;;;;;0.20;0.10;;;;;;;;;;5019784;28;20022;-64
2022/01/09 10:21:31;;;;;;;0.20;0.10;;;;;;;;;;5023723;28;20413;-64
2022/01/09 10:23:56;;;;;;;0.68;0.10;;;;;;;;;;5029317;28;20030;-65
2022/01/09 10:26:23;;;;;;;0.10;0.10;;;;;;;;;;5031609;28;20021;-65
2022/01/09 10:28:48;;;;;;;0.30;0.10;;;;;;;;;;5021657;28;20084;-65
2022/01/09 10:31:15;;;;;;;0.10;0.00;;;;;;;;;;5024560;28;20421;-65
2022/01/09 10:33:40;;;;;;;0.30;0.10;;;;;;;;;;5040198;28;20120;-65
2022/01/09 10:36:06;;;;;;;0.10;0.00;;;;;;;;;;5030495;28;20526;-65
2022/01/09 10:38:31;;;;;;;0.10;0.10;;;;;;;;;;5031215;28;20058;-65
2022/01/09 10:40:58;;;;;;;0.20;0.00;;;;;;;;;;5035162;28;20051;-64
2022/01/09 10:43:26;;;;;;;0.08;0.05;;;;;;;;;;5030339;28;20478;-64
2022/01/09 10:45:59;;;;;;;0.20;0.00;;;;;;;;;;5030080;28;20105;-64
2022/01/09 10:48:26;;;;;;;0.10;0.10;;;;;;;;;;5033151;28;20020;-64
2022/01/09 10:50:52;;;;;;;0.05;0.00;;;;;;;;;;5034563;28;20063;-64
2022/01/09 10:53:19;;;;;;;0.10;0.10;;;;;;;;;;5022296;28;20045;-64
2022/01/09 10:55:45;;;;;;;0.30;0.10;;;;;;;;;;5034931;28;20022;-64
2022/01/09 10:58:14;;;;;;;0.15;0.00;;;;;;;;;;5035041;28;20116;-65
2022/01/09 11:00:40;;;;;;;0.00;0.00;;;;;;;;;;5033431;28;20032;-65
2022/01/09 11:03:05;;;;;;;0.00;0.00;;;;;;;;;;5033229;28;20021;-65
2022/01/09 11:05:31;;;;;;;0.00;0.00;;;;;;;;;;5029205;28;20034;-65
2022/01/09 11:07:56;;;;;;;0.03;0.00;;;;;;;;;;5031852;28;20092;-65
2022/01/09 11:10:22;;;;;;;0.10;0.08;;;;;;;;;;5028687;28;20033;-65
2022/01/09 11:12:49;;;;;;;0.00;0.00;;;;;;;;;;5024026;28;20032;-65
2022/01/09 11:15:18;;;;;;;0.00;0.00;;;;;;;;;;5031915;28;20409;-65
2022/01/09 11:17:45;;;;;;;0.00;0.00;;;;;;;;;;5030026;28;20033;-65
2022/01/09 11:20:10;;;;;;;0.75;0.10;;;;;;;;;;5020839;28;20014;-65
2022/01/09 11:22:35;;;;;;;0.10;0.00;;;;;;;;;;5034199;28;20079;-65
2022/01/09 11:25:11;;;;;;;0.35;0.00;;;;;;;;;;5028432;28;20475;-65
2022/01/09 11:27:51;;;;;;;0.63;0.10;;;;;;;;;;5024503;28;20556;-65
2022/01/09 11:30:20;;;;;;;0.00;0.00;;;;;;;;;;5018408;28;20026;-64
2022/01/09 11:32:55;;;;;;;0.10;0.00;;;;;;;;;;5019814;28;20508;-65
2022/01/09 11:35:26;;;;;;;0.10;0.10;;;;;;;;;;5051093;28;20115;-64
2022/01/09 11:38:09;;;;;;;0.10;0.10;;;;;;;;;;5020947;28;20496;-65
2022/01/09 11:40:35;;;;;;;0.10;0.10;;;;;;;;;;5029148;28;20096;-64
2022/01/09 11:43:06;;;;;;;0.15;0.10;;;;;;;;;;5024175;28;20048;-64
2022/01/09 11:45:48;;;;;;;0.30;0.10;;;;;;;;;;5033432;28;20018;-65
2022/01/09 11:48:15;;;;;;;0.20;0.05;;;;;;;;;;5020364;28;20095;-64
2022/01/09 11:50:59;;;;;;;0.88;0.10;;;;;;;;;;5033925;28;20029;-64
2022/01/09 11:53:24;;;;;;;0.10;0.10;;;;;;;;;;5037261;28;20049;-64
2022/01/09 11:55:50;;;;;;;0.80;0.10;;;;;;;;;;5016224;28;20117;-65
2022/01/09 11:58:19;;;;;;;0.20;0.10;;;;;;;;;;5037687;28;20029;-65
2022/01/09 12:00:45;;;;;;;0.43;0.13;;;;;;;;;;5032928;28;20030;-65
2022/01/09 12:03:25;;;;;;;0.10;0.10;;;;;;;;;;5025407;28;20076;-65
2022/01/09 12:06:03;;;;;;;0.30;0.10;;;;;;;;;;5042949;28;20494;-65
2022/01/09 12:08:48;;;;;;;0.20;0.10;;;;;;;;;;5042093;28;20029;-65
2022/01/09 12:11:13;;;;;;;0.75;0.10;;;;;;;;;;5024674;28;20044;-65
2022/01/09 12:13:42;;;;;;;1.35;0.10;;;;;;;;;;5025138;28;20072;-63
2022/01/09 12:16:08;;;;;;;0.17;0.10;;;;;;;;;;5013297;28;20068;-64
2022/01/09 12:18:41;;;;;;;0.55;0.15;;;;;;;;;;5046331;28;20025;-64
2022/01/09 12:21:06;;;;;;;0.20;0.10;;;;;;;;;;5022840;28;20018;-63
2022/01/09 12:23:32;;;;;;;0.13;0.10;;;;;;;;;;5029420;28;20032;-63
2022/01/09 12:25:57;;;;;;;0.30;0.20;;;;;;;;;;5046063;28;20014;-63
2022/01/09 12:28:34;;;;;;;0.13;0.10;;;;;;;;;;5035205;28;20018;-64
2022/01/09 12:31:00;;;;;;;0.30;0.17;;;;;;;;;;5041678;28;20071;-64
2022/01/09 12:33:25;;;;;;;1.63;0.10;;;;;;;;;;5030911;28;20029;-64
2022/01/09 12:35:58;;;;;;;0.20;0.10;;;;;;;;;;5023465;28;20017;-64
2022/01/09 12:38:24;;;;;;;1.40;0.55;;;;;;;;;;5028322;28;20029;-64
2022/01/09 12:40:56;;;;;;;0.47;0.10;;;;;;;;;;5023226;28;20048;-64
2022/01/09 12:43:22;;;;;;;0.10;0.10;;;;;;;;;;5009927;28;20562;-64
2022/01/09 12:45:47;;;;;;;0.10;0.10;;;;;;;;;;5039869;28;20053;-64
2022/01/09 12:48:19;;;;;;;0.30;0.17;;;;;;;;;;5015568;28;20099;-64
2022/01/09 12:50:45;;;;;;;0.50;0.20;;;;;;;;;;5027178;28;20025;-64
2022/01/09 12:53:20;;;;;;;0.20;0.10;;;;;;;;;;5027292;28;20427;-64
2022/01/09 12:56:04;;;;;;;0.40;0.20;;;;;;;;;;5018066;28;20030;-64
2022/01/09 12:58:30;;;;;;;0.52;0.20;;;;;;;;;;5043386;28;20032;-64
2022/01/09 13:00:56;;;;;;;0.70;0.10;;;;;;;;;;5031560;28;20359;-64
2022/01/09 13:03:26;;;;;;;0.20;0.20;;;;;;;;;;5022592;28;20026;-64
2022/01/09 13:05:55;;;;;;;0.50;0.20;;;;;;;;;;5016200;28;20068;-64
2022/01/09 13:08:20;;;;;;;0.47;0.30;;;;;;;;;;5027984;28;20447;-64
2022/01/09 13:10:54;;;;;;;0.75;0.25;;;;;;;;;;5019267;28;20033;-64
2022/01/09 13:13:22;;;;;;;0.50;0.20;;;;;;;;;;5024416;28;20021;-63
2022/01/09 13:15:47;;;;;;;0.20;0.20;;;;;;;;;;5013510;28;20018;-66
2022/01/09 13:18:12;;;;;;;1.13;0.20;;;;;;;;;;5019921;28;20018;-66
2022/01/09 13:20:37;;;;;;;0.70;0.20;;;;;;;;;;5017003;28;20382;-66
2022/01/09 13:23:07;;;;;;;0.47;0.30;;;;;;;;;;5020659;28;20022;-64
2022/01/09 13:25:45;;;;;;;0.98;0.32;;;;;;;;;;5015582;28;20475;-68
2022/01/09 13:28:20;;;;;;;0.30;0.20;;;;;;;;;;5021729;28;20025;-63
2022/01/09 13:30:45;;;;;;;;;;;;;;;;;;5021838;28;20041;-66
2022/01/09 13:33:10;;;;;;;0.30;0.20;;;;;;;;;;5028579;28;19909;-67
2022/01/09 13:35:36;;;;;;;0.40;0.30;;;;;;;;;;5012621;28;20536;-67
2022/01/09 13:38:01;;;;;;;0.43;0.25;;;;;;;;;;5012684;28;20025;-66
2022/01/09 13:40:26;;;;;;;0.80;0.30;;;;;;;;;;5011448;28;20099;-67
2022/01/09 13:42:52;;;;;;;1.48;0.40;;;;;;;;;;5022409;28;20375;-67
2022/01/09 13:45:20;;;;;;;0.43;0.30;;;;;;;;;;5026097;28;20067;-68
2022/01/09 13:47:47;;;;;;;0.40;0.30;;;;;;;;;;5013338;28;20021;-68
2022/01/09 13:50:22;;;;;;;0.40;0.30;;;;;;;;;;5011401;28;20104;-68
2022/01/09 13:52:48;;;;;;;0.60;0.40;;;;;;;;;;5018689;28;20046;-70
2022/01/09 13:55:14;;;;;;;2.38;0.60;;;;;;;;;;5010395;28;20374;-66
2022/01/09 13:57:52;;;;;;;0.50;0.38;;;;;;;;;;5034222;28;20108;-66
2022/01/09 14:00:24;;;;;;;0.50;0.30;;;;;;;;;;5053319;28;20545;-66
2022/01/09 14:02:49;;;;;;;1.10;0.60;;;;;;;;;;5028380;28;20056;-65
2022/01/09 14:05:18;;;;;;;1.00;0.50;;;;;;;;;;5015823;28;20053;-66
2022/01/09 14:07:53;;;;;;;2.00;1.00;;;;;;;;;;5019658;28;20034;-65
2022/01/09 14:10:19;;;;;;;1.23;0.90;;;;;;;;;;5026440;28;20501;-66
2022/01/09 14:12:46;;;;;;;1.20;1.10;;;;;;;;;;5025067;28;20030;-66
2022/01/09 14:15:12;;;;;;;2.30;1.33;;;;;;;;;;5029867;28;20028;-66
2022/01/09 14:17:42;;;;;;;2.10;1.60;;;;;;;;;;5023218;28;20030;-66
2022/01/09 14:20:16;;;;;;;1.83;1.53;;;;;;;;;;5029834;28;20025;-66
2022/01/09 14:22:48;;;;;;;3.67;2.80;;;;;;;;;;5028937;28;20112;-67
2022/01/09 14:25:17;;;;;;;4.00;2.50;;;;;;;;;;5051732;28;20465;-68
2022/01/09 14:27:44;;;;;;;2.80;2.53;;;;;;;;;;5034840;28;20033;-66
2022/01/09 14:30:25;;;;;;;2.37;1.90;;;;;;;;;;5035641;28;20013;-67
2022/01/09 14:33:07;;;;;;;3.37;2.60;;;;;;;;;;5029374;28;20060;-67
2022/01/09 14:35:37;;;;;;;3.70;3.20;;;;;;;;;;5035962;28;20060;-67
2022/01/09 14:38:03;;;;;;;2.47;2.25;;;;;;;;;;5022089;28;20048;-67
2022/01/09 14:40:29;;;;;;;3.90;3.13;;;;;;;;;;5053270;28;20146;-67